createdAt,value
2023-01-20T00:01:22.348Z,2.63
2023-01-20T00:03:48.983Z,4.38
2023-01-20T00:06:15.482Z,3.28
2023-01-20T00:08:42.335Z,2.83
2023-01-20T00:11:12.204Z,3.20
2023-01-20T00:13:39.463Z,3.53
2023-01-20T00:16:08.047Z,3.67
2023-01-20T00:18:35.143Z,2.30
2023-01-20T00:21:05.919Z,3.03
2023-01-20T00:23:32.708Z,3.00
2023-01-20T00:25:59.444Z,2.53
2023-01-20T00:28:26.047Z,3.83
2023-01-20T00:30:52.478Z,4.40
2023-01-20T00:33:18.963Z,2.72
2023-01-20T00:35:45.387Z,3.05
2023-01-20T00:38:11.851Z,5.00
2023-01-20T00:40:38.269Z,4.78
2023-01-20T00:43:04.662Z,4.53
2023-01-20T00:45:31.078Z,5.07
2023-01-20T00:47:57.518Z,4.85
2023-01-20T00:50:23.979Z,5.20
2023-01-20T00:52:50.391Z,7.30
2023-01-20T00:55:16.817Z,6.65
2023-01-20T00:57:43.245Z,6.40
2023-01-20T01:00:10.260Z,8.70
2023-01-20T01:02:40.111Z,6.20
2023-01-20T01:05:06.838Z,6.00
2023-01-20T01:07:33.320Z,6.75
2023-01-20T01:09:59.732Z,10.23
2023-01-20T01:12:26.332Z,10.20
2023-01-20T01:14:52.766Z,9.15
2023-01-20T01:17:19.440Z,10.20
2023-01-20T01:19:45.868Z,10.65
2023-01-20T01:22:12.293Z,11.90
2023-01-20T01:24:38.897Z,9.75
2023-01-20T01:27:05.377Z,10.73
2023-01-20T01:29:31.804Z,10.30
2023-01-20T01:31:58.227Z,10.15
2023-01-20T01:34:24.736Z,12.38
2023-01-20T01:36:51.194Z,13.70
2023-01-20T01:39:17.647Z,13.03
2023-01-20T01:41:44.056Z,13.68
2023-01-20T01:44:12.772Z,10.95
2023-01-20T01:46:41.335Z,13.50
2023-01-20T01:49:20.071Z,12.75
2023-01-20T01:52:08.942Z,13.05
2023-01-20T01:54:39.877Z,11.60
2023-01-20T01:57:07.849Z,10.65
2023-01-20T01:59:35.086Z,14.35
2023-01-20T02:02:01.783Z,15.32
2023-01-20T02:04:28.463Z,15.65
2023-01-20T02:07:09.281Z,16.40
2023-01-20T02:09:36.151Z,16.05
2023-01-20T02:12:06.370Z,17.25
2023-01-20T02:14:42.607Z,18.95
2023-01-20T02:17:18.329Z,15.55
2023-01-20T02:20:17.676Z,16.15
2023-01-20T02:22:56.181Z,18.13
2023-01-20T02:25:28.547Z,14.48
2023-01-20T02:28:28.864Z,22.73
2023-01-20T02:31:07.480Z,17.15
2023-01-20T02:33:36.828Z,15.85
2023-01-20T02:36:19.511Z,15.98
2023-01-20T02:39:01.144Z,17.60
2023-01-20T02:41:41.806Z,19.13
2023-01-20T02:44:16.419Z,16.33
2023-01-20T02:47:21.974Z,25.52
2023-01-20T02:50:13.059Z,17.23
2023-01-20T02:52:47.615Z,23.10
2023-01-20T02:55:22.265Z,20.58
2023-01-20T02:57:55.813Z,20.67
2023-01-20T03:00:31.664Z,24.40
2023-01-20T03:03:01.905Z,23.60
2023-01-20T03:05:35.027Z,20.50
2023-01-20T03:08:06.450Z,19.90
2023-01-20T03:10:35.495Z,20.88
2023-01-20T03:13:21.260Z,21.52
2023-01-20T03:16:01.335Z,24.00
2023-01-20T03:18:33.809Z,22.77
2023-01-20T03:21:02.435Z,30.98
2023-01-20T03:23:33.310Z,29.80
2023-01-20T03:26:02.981Z,31.73
2023-01-20T03:28:29.416Z,29.55
2023-01-20T03:30:57.461Z,32.67
2023-01-20T03:33:24.731Z,27.23
2023-01-20T03:35:52.261Z,28.05
2023-01-20T03:38:18.784Z,36.97
2023-01-20T03:41:29.840Z,29.25
2023-01-20T03:44:11.463Z,30.00
2023-01-20T03:47:31.534Z,33.58
2023-01-20T03:50:10.040Z,29.83
2023-01-20T03:52:47.483Z,34.90
2023-01-20T03:55:26.456Z,38.90
2023-01-20T03:58:04.612Z,30.13
2023-01-20T04:00:37.869Z,40.08
2023-01-20T04:03:08.782Z,33.55
2023-01-20T04:05:37.431Z,33.67
2023-01-20T04:08:08.710Z,35.75
2023-01-20T04:10:38.720Z,34.03
2023-01-20T04:13:05.395Z,34.08
2023-01-20T04:15:42.055Z,34.07
2023-01-20T04:18:16.903Z,31.20
2023-01-20T04:20:46.502Z,31.10
2023-01-20T04:23:20.140Z,33.65
2023-01-20T04:25:46.847Z,35.72
2023-01-20T04:28:13.242Z,36.30
2023-01-20T04:30:39.690Z,33.95
2023-01-20T04:33:06.248Z,36.95
2023-01-20T04:35:32.660Z,40.72
2023-01-20T04:37:59.202Z,36.42
2023-01-20T04:40:25.664Z,28.50
2023-01-20T04:42:52.105Z,32.92
2023-01-20T04:45:18.728Z,34.13
2023-01-20T04:47:45.120Z,35.00
2023-01-20T04:50:13.819Z,38.33
2023-01-20T04:52:40.398Z,35.45
2023-01-20T04:55:07.307Z,36.90
2023-01-20T04:57:33.752Z,43.55
2023-01-20T05:00:00.200Z,31.20
2023-01-20T05:02:27.017Z,33.85
2023-01-20T05:04:53.485Z,35.63
2023-01-20T05:07:19.885Z,34.72
2023-01-20T05:09:46.289Z,33.33
2023-01-20T05:12:12.817Z,41.72
2023-01-20T05:14:39.215Z,33.85
2023-01-20T05:17:05.663Z,33.80
2023-01-20T05:19:32.088Z,37.60
2023-01-20T05:21:59.864Z,35.55
2023-01-20T05:24:26.305Z,33.63
2023-01-20T05:26:52.762Z,41.45
2023-01-20T05:29:19.278Z,29.65
2023-01-20T05:31:45.719Z,35.72
2023-01-20T05:34:12.248Z,36.80
2023-01-20T05:36:38.809Z,36.78
2023-01-20T05:39:05.284Z,40.17
2023-01-20T05:41:32.387Z,33.70
2023-01-20T05:43:58.827Z,37.10
2023-01-20T05:46:25.325Z,32.30
2023-01-20T05:48:51.772Z,51.00
2023-01-20T05:51:18.182Z,37.88
2023-01-20T05:53:44.784Z,40.35
2023-01-20T05:56:15.691Z,35.45
2023-01-20T05:58:42.429Z,32.88
2023-01-20T06:01:11.857Z,46.60
2023-01-20T06:03:38.418Z,41.80
2023-01-20T06:06:07.872Z,38.95
2023-01-20T06:08:35.258Z,41.03
2023-01-20T06:11:19.745Z,49.90
2023-01-20T06:13:49.366Z,42.38
2023-01-20T06:16:20.029Z,41.28
2023-01-20T06:18:46.573Z,39.78
2023-01-20T06:21:12.994Z,46.42
2023-01-20T06:23:39.745Z,44.88
2023-01-20T06:26:12.608Z,46.67
2023-01-20T06:28:39.246Z,47.78
2023-01-20T06:31:12.016Z,40.30
2023-01-20T06:33:38.573Z,45.40
2023-01-20T06:36:06.171Z,45.92
2023-01-20T06:38:34.935Z,43.15
2023-01-20T06:41:03.868Z,45.35
2023-01-20T06:43:31.408Z,47.00
2023-01-20T06:46:02.961Z,46.38
2023-01-20T06:48:30.095Z,48.28
2023-01-20T06:51:07.966Z,41.75
2023-01-20T06:53:35.036Z,44.40
2023-01-20T06:56:04.578Z,46.40
2023-01-20T06:58:32.961Z,40.63
2023-01-20T07:01:15.773Z,40.22
2023-01-20T07:03:45.735Z,35.30
2023-01-20T07:06:25.861Z,37.95
2023-01-20T07:08:52.730Z,33.50
2023-01-20T07:11:19.898Z,36.17
2023-01-20T07:14:10.250Z,32.03
2023-01-20T07:16:37.248Z,35.72
2023-01-20T07:19:04.226Z,34.15
2023-01-20T07:21:30.838Z,38.08
2023-01-20T07:24:01.326Z,35.17
2023-01-20T07:26:27.976Z,34.28
2023-01-20T07:28:54.459Z,30.65
2023-01-20T07:31:26.698Z,36.83
2023-01-20T07:33:57.523Z,33.65
2023-01-20T07:36:26.378Z,36.20
2023-01-20T07:38:53.755Z,43.97
2023-01-20T07:41:21.404Z,37.28
2023-01-20T07:43:49.929Z,40.80
2023-01-20T07:46:16.821Z,40.42
2023-01-20T07:48:43.609Z,39.10
2023-01-20T07:51:12.847Z,38.38
2023-01-20T07:53:47.954Z,34.35
2023-01-20T07:56:20.309Z,34.75
2023-01-20T07:58:50.328Z,35.10
2023-01-20T08:01:22.525Z,37.58
2023-01-20T08:03:49.719Z,34.65
2023-01-20T08:06:19.185Z,38.38
2023-01-20T08:08:46.034Z,40.28
2023-01-20T08:11:14.193Z,36.15
2023-01-20T08:13:41.079Z,37.17
2023-01-20T08:16:10.364Z,34.72
2023-01-20T08:18:36.978Z,34.85
2023-01-20T08:21:08.261Z,40.85
2023-01-20T08:23:35.883Z,36.70
2023-01-20T08:26:05.424Z,34.83
2023-01-20T08:28:35.421Z,32.78
2023-01-20T08:31:13.211Z,35.55
2023-01-20T08:33:42.158Z,32.47
2023-01-20T08:36:17.302Z,36.88
2023-01-20T08:38:44.749Z,34.60
2023-01-20T08:41:15.668Z,31.17
2023-01-20T08:43:42.292Z,33.70
2023-01-20T08:46:11.925Z,35.83
2023-01-20T08:48:39.739Z,39.22
2023-01-20T08:51:08.660Z,34.95
2023-01-20T08:53:35.741Z,37.15
2023-01-20T08:56:03.276Z,34.90
2023-01-20T08:58:30.331Z,37.67
2023-01-20T09:00:56.827Z,33.28
2023-01-20T09:03:23.957Z,39.05
2023-01-20T09:05:50.822Z,31.08
2023-01-20T09:08:20.021Z,31.25
2023-01-20T09:10:46.700Z,34.53
2023-01-20T09:13:13.103Z,37.72
2023-01-20T09:15:39.530Z,35.38
2023-01-20T09:18:06.106Z,34.60
2023-01-20T09:20:32.519Z,35.47
2023-01-20T09:23:03.018Z,30.58
2023-01-20T09:25:29.641Z,35.15
2023-01-20T09:27:56.054Z,33.33
2023-01-20T09:30:22.441Z,37.60
2023-01-20T09:32:53.038Z,27.92
2023-01-20T09:35:19.654Z,28.48
2023-01-20T09:38:04.799Z,29.48
2023-01-20T09:41:02.081Z,33.08
2023-01-20T09:43:54.150Z,26.50
2023-01-20T09:47:11.093Z,24.08
2023-01-20T09:50:14.659Z,34.28
2023-01-20T09:53:00.438Z,23.17
2023-01-20T09:55:26.759Z,29.88
2023-01-20T09:58:08.246Z,29.98
2023-01-20T10:00:36.860Z,30.05
2023-01-20T10:03:22.347Z,29.38
2023-01-20T10:05:53.404Z,33.03
2023-01-20T10:08:32.342Z,25.13
2023-01-20T10:11:05.583Z,24.92
2023-01-20T10:13:51.573Z,30.73
2023-01-20T10:16:45.837Z,29.73
2023-01-20T10:19:29.659Z,27.58
2023-01-20T10:22:07.100Z,27.42
2023-01-20T10:24:47.340Z,29.00
2023-01-20T10:27:13.732Z,24.52
2023-01-20T10:29:56.784Z,25.73
2023-01-20T10:32:36.412Z,26.17
2023-01-20T10:35:15.504Z,25.02
2023-01-20T10:37:42.653Z,24.85
2023-01-20T10:40:27.719Z,28.38
2023-01-20T10:42:59.578Z,22.52
2023-01-20T10:45:42.755Z,25.55
2023-01-20T10:48:37.583Z,21.67
2023-01-20T10:51:25.920Z,22.92
2023-01-20T10:54:01.550Z,19.95
2023-01-20T10:56:41.763Z,20.42
2023-01-20T10:59:13.769Z,21.95
2023-01-20T11:01:41.414Z,16.38
2023-01-20T11:04:19.432Z,17.67
2023-01-20T11:06:54.505Z,20.40
2023-01-20T11:09:29.571Z,17.25
2023-01-20T11:11:58.265Z,19.02
2023-01-20T11:14:26.146Z,17.40
2023-01-20T11:17:04.447Z,20.48
2023-01-20T11:19:46.973Z,15.32
2023-01-20T11:22:20.604Z,15.68
2023-01-20T11:24:47.378Z,18.27
2023-01-20T11:27:21.358Z,18.58
2023-01-20T11:30:04.339Z,17.30
2023-01-20T11:32:37.245Z,20.98
2023-01-20T11:35:21.697Z,16.33
2023-01-20T11:37:48.469Z,20.95
2023-01-20T11:40:25.146Z,18.20
2023-01-20T11:42:53.355Z,18.33
2023-01-20T11:45:30.223Z,18.40
2023-01-20T11:48:16.471Z,21.88
2023-01-20T11:50:57.435Z,22.15
2023-01-20T11:53:26.518Z,18.97
2023-01-20T11:55:59.348Z,24.67
2023-01-20T11:58:47.559Z,19.50
2023-01-20T12:01:25.824Z,16.25
2023-01-20T12:04:21.862Z,16.65
2023-01-20T12:07:09.280Z,17.45
2023-01-20T12:09:40.104Z,16.48
2023-01-20T12:12:09.860Z,21.00
2023-01-20T12:14:47.175Z,20.23
2023-01-20T12:17:32.399Z,21.75
2023-01-20T12:20:05.494Z,20.17
2023-01-20T12:22:41.143Z,18.27
2023-01-20T12:25:19.873Z,18.27
2023-01-20T12:28:01.296Z,15.55
2023-01-20T12:30:37.850Z,19.45
2023-01-20T12:33:05.251Z,16.75
2023-01-20T12:35:46.187Z,19.00
2023-01-20T12:38:19.632Z,18.92
2023-01-20T12:40:52.604Z,18.25
2023-01-20T12:43:43.745Z,14.85
2023-01-20T12:46:32.245Z,19.13
2023-01-20T12:49:29.082Z,16.35
2023-01-20T12:52:09.368Z,20.23
2023-01-20T12:54:53.337Z,18.58
2023-01-20T12:57:41.444Z,18.23
2023-01-20T13:00:29.526Z,16.40
2023-01-20T13:03:14.517Z,16.50
2023-01-20T13:06:01.353Z,18.73
2023-01-20T13:09:05.884Z,16.27
2023-01-20T13:11:56.969Z,18.40
2023-01-20T13:17:43.497Z,15.70
2023-01-20T13:20:30.938Z,20.52
2023-01-20T13:23:04.201Z,15.15
2023-01-20T13:25:32.319Z,15.98
2023-01-20T13:27:59.222Z,11.75
2023-01-20T13:30:47.811Z,12.25
2023-01-20T13:33:33.491Z,13.45
2023-01-20T13:36:02.014Z,13.10
2023-01-20T13:38:33.039Z,12.43
2023-01-20T13:41:03.484Z,18.30
2023-01-20T13:43:32.808Z,14.38
2023-01-20T13:46:05.790Z,11.55
2023-01-20T13:48:34.246Z,17.50
2023-01-20T13:51:26.965Z,12.68
2023-01-20T13:53:53.562Z,12.30
2023-01-20T13:56:33.666Z,16.33
2023-01-20T13:59:00.240Z,12.27
2023-01-20T14:01:27.897Z,14.00
2023-01-20T14:04:03.737Z,11.88
2023-01-20T14:06:33.038Z,15.20
2023-01-20T14:09:01.403Z,12.93
2023-01-20T14:11:29.662Z,15.50
2023-01-20T14:14:07.545Z,13.13
2023-01-20T14:16:41.199Z,13.27
2023-01-20T14:19:19.932Z,15.30
2023-01-20T14:21:53.128Z,18.45
2023-01-20T14:24:43.757Z,15.88
2023-01-20T14:27:28.286Z,15.88
2023-01-20T14:29:56.840Z,15.40
2023-01-20T14:32:35.197Z,15.05
2023-01-20T14:35:04.294Z,16.30
2023-01-20T14:37:38.916Z,17.20
2023-01-20T14:40:32.452Z,15.68
2023-01-20T14:43:07.836Z,13.57
2023-01-20T14:45:36.827Z,11.68
2023-01-20T14:48:05.220Z,10.05
2023-01-20T14:50:31.746Z,14.18
2023-01-20T14:52:58.180Z,14.98
2023-01-20T14:55:35.896Z,12.82
2023-01-20T14:58:18.708Z,17.90
2023-01-20T15:00:49.921Z,19.38
2023-01-20T15:03:21.841Z,16.98
2023-01-20T15:05:59.145Z,17.00
2023-01-20T15:08:34.691Z,14.65
2023-01-20T15:11:21.650Z,14.45
2023-01-20T15:13:51.104Z,15.68
2023-01-20T15:16:36.995Z,14.23
2023-01-20T15:19:15.592Z,13.57
2023-01-20T15:21:45.925Z,10.65
2023-01-20T15:24:15.128Z,15.13
2023-01-20T15:26:42.085Z,10.52
2023-01-20T15:29:21.913Z,13.70
2023-01-20T15:31:49.194Z,12.80
2023-01-20T15:34:15.734Z,15.30
2023-01-20T15:36:43.983Z,14.18
2023-01-20T15:39:18.991Z,11.80
2023-01-20T15:41:46.549Z,10.82
2023-01-20T15:44:12.927Z,10.77
2023-01-20T15:46:40.453Z,12.05
2023-01-20T15:49:11.676Z,11.02
2023-01-20T15:51:38.719Z,11.98
2023-01-20T15:54:07.368Z,13.20
2023-01-20T15:56:35.227Z,9.90
2023-01-20T15:59:02.190Z,15.00
2023-01-20T16:01:29.504Z,12.27
2023-01-20T16:03:57.443Z,12.20
2023-01-20T16:06:30.411Z,14.68
2023-01-20T16:08:57.819Z,10.80
2023-01-20T16:11:24.284Z,16.57
2023-01-20T16:13:50.683Z,11.02
2023-01-20T16:16:19.325Z,11.80
2023-01-20T16:18:46.296Z,11.20
2023-01-20T16:21:15.211Z,12.05
2023-01-20T16:23:42.141Z,10.13
2023-01-20T16:26:23.516Z,8.68
2023-01-20T16:28:51.648Z,10.27
2023-01-20T16:31:19.174Z,8.57
2023-01-20T16:33:45.945Z,8.80
2023-01-20T16:36:15.016Z,10.95
2023-01-20T16:38:42.417Z,9.52
2023-01-20T16:41:21.672Z,9.43
2023-01-20T16:43:48.808Z,12.25
2023-01-20T16:46:17.686Z,11.25
2023-01-20T16:48:44.144Z,12.52
2023-01-20T16:51:16.788Z,10.35
2023-01-20T16:53:43.270Z,11.70
2023-01-20T16:56:19.605Z,10.30
2023-01-20T16:58:51.613Z,10.85
2023-01-20T17:01:23.438Z,13.30
2023-01-20T17:03:52.252Z,13.30
2023-01-20T17:06:21.244Z,13.55
2023-01-20T17:08:49.677Z,10.52
2023-01-20T17:11:28.128Z,11.10
2023-01-20T17:13:55.608Z,17.33
2023-01-20T17:16:22.991Z,14.55
2023-01-20T17:18:50.897Z,14.25
2023-01-20T17:21:19.367Z,19.77
2023-01-20T17:23:50.271Z,16.98
2023-01-20T17:26:16.784Z,20.50
2023-01-20T17:28:46.580Z,16.45
2023-01-20T17:31:13.890Z,20.00
2023-01-20T17:33:46.205Z,24.10
2023-01-20T17:36:13.072Z,24.70
2023-01-20T17:38:42.321Z,22.88
2023-01-20T17:41:10.177Z,26.05
2023-01-20T17:43:38.926Z,21.58
2023-01-20T17:46:29.560Z,25.65
2023-01-20T17:48:56.948Z,25.95
2023-01-20T17:51:25.443Z,23.23
2023-01-20T17:53:51.937Z,22.80
2023-01-20T17:56:20.354Z,21.92
2023-01-20T17:58:47.427Z,24.13
2023-01-20T18:01:21.078Z,24.27
2023-01-20T18:03:49.666Z,24.88
2023-01-20T18:06:19.273Z,25.83
2023-01-20T18:08:52.433Z,26.05
2023-01-20T18:11:21.536Z,27.70
2023-01-20T18:13:50.222Z,31.10
2023-01-20T18:16:18.866Z,29.10
2023-01-20T18:18:47.116Z,26.45
2023-01-20T18:21:13.524Z,28.42
2023-01-20T18:23:41.144Z,26.70
2023-01-20T18:26:09.610Z,31.40
2023-01-20T18:28:36.800Z,31.70
2023-01-20T18:31:09.745Z,29.60
2023-01-20T18:33:43.980Z,27.63
2023-01-20T18:36:14.781Z,31.02
2023-01-20T18:38:44.919Z,28.25
2023-01-20T18:41:13.136Z,33.33
2023-01-20T18:43:40.446Z,30.73
2023-01-20T18:46:08.589Z,31.23
2023-01-20T18:48:39.646Z,36.67
2023-01-20T18:51:07.620Z,37.40
2023-01-20T18:53:34.158Z,33.55
2023-01-20T18:56:08.740Z,33.85
2023-01-20T18:58:37.384Z,35.85
2023-01-20T19:01:12.141Z,32.22
2023-01-20T19:03:39.740Z,32.80
2023-01-20T19:06:21.686Z,26.85
2023-01-20T19:08:48.687Z,29.08
2023-01-20T19:11:20.763Z,29.05
2023-01-20T19:13:51.142Z,28.33
2023-01-20T19:16:19.115Z,37.03
2023-01-20T19:18:51.698Z,31.05
2023-01-20T19:21:18.319Z,33.15
2023-01-20T19:23:51.838Z,31.90
2023-01-20T19:26:26.172Z,32.63
2023-01-20T19:29:02.305Z,29.98
2023-01-20T19:31:34.984Z,35.87
2023-01-20T19:34:01.793Z,36.50
2023-01-20T19:36:28.231Z,34.33
2023-01-20T19:38:54.987Z,28.92
2023-01-20T19:41:25.594Z,35.65
2023-01-20T19:43:57.417Z,29.92
2023-01-20T19:46:26.634Z,26.70
2023-01-20T19:48:54.495Z,31.52
2023-01-20T19:51:21.104Z,28.42
2023-01-20T19:53:50.117Z,36.05
2023-01-20T19:56:19.315Z,33.38
2023-01-20T19:58:47.227Z,28.73
2023-01-20T20:01:22.605Z,31.73
2023-01-20T20:03:51.804Z,28.65
2023-01-20T20:06:23.188Z,34.33
2023-01-20T20:08:50.603Z,27.10
2023-01-20T20:11:17.115Z,26.55
2023-01-20T20:13:43.539Z,28.88
2023-01-20T20:16:10.235Z,35.30
2023-01-20T20:18:36.659Z,30.15
2023-01-20T20:21:04.754Z,28.97
2023-01-20T20:23:31.149Z,25.80
2023-01-20T20:25:57.642Z,29.70
2023-01-20T20:28:25.283Z,29.85
2023-01-20T20:30:52.834Z,34.47
2023-01-20T20:33:19.723Z,29.83
2023-01-20T20:35:46.341Z,29.73
2023-01-20T20:38:12.741Z,34.28
2023-01-20T20:40:39.226Z,30.38
2023-01-20T20:43:05.604Z,28.63
2023-01-20T20:45:32.136Z,26.52
2023-01-20T20:47:58.545Z,33.90
2023-01-20T20:50:25.282Z,26.20
2023-01-20T20:52:52.607Z,33.85
2023-01-20T20:55:19.215Z,29.63
2023-01-20T20:57:45.666Z,28.65
2023-01-20T21:00:12.630Z,29.95
2023-01-20T21:02:39.723Z,27.05
2023-01-20T21:05:07.616Z,27.58
2023-01-20T21:07:34.296Z,27.35
2023-01-20T21:10:00.893Z,29.53
2023-01-20T21:12:27.334Z,27.92
2023-01-20T21:14:53.699Z,28.65
2023-01-20T21:17:20.108Z,27.02
2023-01-20T21:19:52.124Z,29.33
2023-01-20T21:22:19.821Z,32.67
2023-01-20T21:24:46.176Z,29.52
2023-01-20T21:27:13.276Z,35.67
2023-01-20T21:29:39.644Z,31.55
2023-01-20T21:32:06.078Z,30.55
2023-01-20T21:34:32.481Z,33.60
2023-01-20T21:36:59.573Z,34.55
2023-01-20T21:39:25.967Z,29.20
2023-01-20T21:41:52.332Z,29.38
2023-01-20T21:44:32.985Z,31.52
2023-01-20T21:47:04.825Z,30.70
2023-01-20T21:49:50.132Z,30.27
2023-01-20T21:52:37.864Z,40.30
2023-01-20T21:55:05.159Z,28.75
2023-01-20T21:57:32.662Z,31.45
2023-01-20T21:59:59.926Z,31.73
2023-01-20T22:02:29.689Z,34.05
2023-01-20T22:04:56.364Z,30.63
2023-01-20T22:07:23.305Z,29.00
2023-01-20T22:09:49.868Z,35.00
2023-01-20T22:12:16.437Z,36.38
2023-01-20T22:14:43.019Z,30.10
2023-01-20T22:17:10.871Z,33.42
2023-01-20T22:19:37.866Z,36.50
2023-01-20T22:22:05.006Z,29.83
2023-01-20T22:24:31.639Z,32.65
2023-01-20T22:26:58.303Z,30.48
2023-01-20T22:29:25.205Z,33.33
2023-01-20T22:31:53.249Z,32.03
2023-01-20T22:34:20.261Z,32.65
2023-01-20T22:36:46.912Z,25.20
2023-01-20T22:39:14.482Z,28.63
2023-01-20T22:41:41.013Z,31.30
2023-01-20T22:44:08.105Z,36.72
2023-01-20T22:46:34.487Z,38.67
2023-01-20T22:49:00.925Z,36.28
2023-01-20T22:51:29.714Z,43.45
2023-01-20T22:53:58.126Z,35.17
2023-01-20T22:56:27.853Z,33.45
2023-01-20T22:58:56.519Z,36.22
2023-01-20T23:01:25.749Z,34.75
2023-01-20T23:03:57.046Z,35.20
2023-01-20T23:06:24.444Z,37.13
2023-01-20T23:08:50.862Z,38.75
2023-01-20T23:11:18.974Z,37.35
2023-01-20T23:13:46.705Z,33.15
2023-01-20T23:16:17.457Z,40.45
2023-01-20T23:18:45.619Z,41.83
2023-01-20T23:21:12.473Z,45.63
2023-01-20T23:23:39.273Z,37.42
2023-01-20T23:26:12.103Z,32.20
2023-01-20T23:28:38.552Z,34.05
2023-01-20T23:31:07.378Z,26.77
2023-01-20T23:33:34.448Z,40.13
2023-01-20T23:36:08.616Z,29.95
2023-01-20T23:38:35.085Z,34.08
2023-01-20T23:41:03.151Z,32.15
2023-01-20T23:43:30.789Z,31.92
2023-01-20T23:46:02.233Z,31.30
2023-01-20T23:48:29.421Z,34.92
2023-01-20T23:50:59.606Z,31.30
2023-01-20T23:53:27.307Z,28.38
2023-01-20T23:56:01.639Z,27.15
2023-01-20T23:58:28.434Z,27.00
